Time;durP1;ratioP1;P1;durP2;ratioP2;P2;SDS_P1;SDS_P2;PMS_P1;PMS_P2;Temp;Humidity;BMP_temperature;BMP_pressure;BME280_temperature;BME280_humidity;BME280_pressure;Samples;Min_cycle;Max_cycle;Signal;HPM_P1;HPM_P2
2022/05/07 00:01:22;;;;;;;6.15;2.85;;;;;;;;;;1751483;82;20995;-77
2022/05/07 00:03:48;;;;;;;4.53;2.65;;;;;;;;;;1750804;80;21028;-77
2022/05/07 00:06:14;;;;;;;4.35;2.62;;;;;;;;;;1726835;81;21601;-77
2022/05/07 00:08:40;;;;;;;4.28;2.77;;;;;;;;;;1726885;82;21018;-77
2022/05/07 00:11:06;;;;;;;4.97;2.83;;;;;;;;;;1730462;82;21058;-77
2022/05/07 00:13:32;;;;;;;4.67;2.52;;;;;;;;;;1747323;81;22273;-77
2022/05/07 00:18:43;;;;;;;5.53;3.30;;;;;;;;;;1750732;82;21507;-77
2022/05/07 00:21:08;;;;;;;6.30;3.08;;;;;;;;;;1740902;82;21137;-77
2022/05/07 00:23:34;;;;;;;4.90;2.65;;;;;;;;;;1736471;82;21029;-77
2022/05/07 00:26:01;;;;;;;4.42;2.80;;;;;;;;;;1726292;82;21070;-77
2022/05/07 00:28:27;;;;;;;5.37;3.20;;;;;;;;;;1747712;81;21009;-78
2022/05/07 00:30:53;;;;;;;4.20;2.98;;;;;;;;;;1742669;82;21008;-78
2022/05/07 00:33:19;;;;;;;5.03;2.90;;;;;;;;;;1753154;82;21024;-78
2022/05/07 00:35:46;;;;;;;5.05;3.20;;;;;;;;;;1739340;81;21484;-78
2022/05/07 00:38:12;;;;;;;5.87;2.90;;;;;;;;;;1733689;82;21000;-77
2022/05/07 00:40:39;;;;;;;3.98;2.72;;;;;;;;;;1733863;82;21085;-77
2022/05/07 00:43:05;;;;;;;5.47;2.80;;;;;;;;;;1733388;82;21020;-77
2022/05/07 00:45:31;;;;;;;5.83;3.27;;;;;;;;;;1738425;82;21516;-77
2022/05/07 00:47:58;;;;;;;6.35;3.52;;;;;;;;;;1752628;81;21020;-76
2022/05/07 00:53:09;;;;;;;5.78;3.40;;;;;;;;;;1743295;82;21515;-77
2022/05/07 00:55:35;;;;;;;4.75;2.92;;;;;;;;;;1714667;82;21537;-76
2022/05/07 00:58:01;;;;;;;5.60;2.85;;;;;;;;;;1733587;82;21020;-77
2022/05/07 01:03:46;;;;;;;6.17;3.00;;;;;;;;;;1713016;80;21656;-72
2022/05/07 01:06:13;;;;;;;6.53;2.85;;;;;;;;;;1646971;86;21563;-72
2022/05/07 01:08:41;;;;;;;5.30;3.20;;;;;;;;;;1640235;86;21066;-72
2022/05/07 01:11:08;;;;;;;5.70;3.47;;;;;;;;;;1640019;87;21566;-72
2022/05/07 01:13:36;;;;;;;8.53;3.50;;;;;;;;;;1640665;87;21126;-73
2022/05/07 01:16:02;;;;;;;5.95;3.35;;;;;;;;;;1620470;87;21599;-72
2022/05/07 01:18:30;;;;;;;5.55;3.20;;;;;;;;;;1639812;86;21117;-70
2022/05/07 01:20:57;;;;;;;7.35;4.00;;;;;;;;;;1639828;87;21165;-71
2022/05/07 01:23:24;;;;;;;8.98;4.30;;;;;;;;;;1639160;87;21058;-71
2022/05/07 01:25:54;;;;;;;12.18;6.00;;;;;;;;;;1639432;87;21054;-71
2022/05/07 01:28:21;;;;;;;14.10;7.22;;;;;;;;;;1639855;87;21041;-71
2022/05/07 01:30:49;;;;;;;18.27;7.17;;;;;;;;;;1640086;87;21023;-71
2022/05/07 01:33:15;;;;;;;14.00;6.85;;;;;;;;;;1639459;87;21035;-71
2022/05/07 01:35:43;;;;;;;14.13;7.15;;;;;;;;;;1646172;86;20999;-71
2022/05/07 01:38:09;;;;;;;12.23;5.47;;;;;;;;;;1657111;86;21072;-70
2022/05/07 01:40:37;;;;;;;13.65;7.30;;;;;;;;;;1626176;87;21072;-70
2022/05/07 01:43:03;;;;;;;11.50;6.60;;;;;;;;;;1609382;89;21033;-69
2022/05/07 01:45:30;;;;;;;13.62;7.65;;;;;;;;;;1608386;89;21149;-70
2022/05/07 01:48:11;;;;;;;14.87;6.62;;;;;;;;;;1611505;89;21056;-70
2022/05/07 01:50:46;;;;;;;10.43;5.70;;;;;;;;;;1610919;88;21061;-69
2022/05/07 01:53:14;;;;;;;9.25;5.65;;;;;;;;;;1628819;87;22141;-70
2022/05/07 01:55:43;;;;;;;8.30;4.53;;;;;;;;;;1606222;89;21116;-70
2022/05/07 01:58:11;;;;;;;8.28;4.53;;;;;;;;;;1608751;89;21102;-70
2022/05/07 02:00:42;;;;;;;6.20;3.62;;;;;;;;;;1617668;88;21577;-71
2022/05/07 02:03:10;;;;;;;6.15;3.65;;;;;;;;;;1609239;88;21062;-72
2022/05/07 02:05:36;;;;;;;6.20;3.85;;;;;;;;;;1635926;88;21056;-72
2022/05/07 02:08:03;;;;;;;6.17;3.52;;;;;;;;;;1635835;88;21103;-72
2022/05/07 02:10:29;;;;;;;5.10;3.00;;;;;;;;;;1635795;88;21026;-72
2022/05/07 02:12:57;;;;;;;5.67;3.30;;;;;;;;;;1635990;88;21610;-72
2022/05/07 02:15:26;;;;;;;4.80;3.37;;;;;;;;;;1635901;88;21147;-72
2022/05/07 02:17:56;;;;;;;6.10;3.17;;;;;;;;;;1635960;88;21587;-70
2022/05/07 02:20:23;;;;;;;4.62;3.10;;;;;;;;;;1635804;88;21112;-71
2022/05/07 02:22:53;;;;;;;8.63;3.90;;;;;;;;;;1634549;88;21624;-71
2022/05/07 02:25:20;;;;;;;6.72;3.65;;;;;;;;;;1634718;88;21021;-71
2022/05/07 02:27:46;;;;;;;6.30;3.35;;;;;;;;;;1614095;88;21576;-71
2022/05/07 02:30:13;;;;;;;7.05;3.40;;;;;;;;;;1634868;88;21087;-71
2022/05/07 02:32:40;;;;;;;8.53;3.65;;;;;;;;;;1634507;88;21591;-71
2022/05/07 02:35:08;;;;;;;7.92;3.85;;;;;;;;;;1634845;88;21017;-71
2022/05/07 02:37:36;;;;;;;8.10;4.20;;;;;;;;;;1652602;86;21124;-71
2022/05/07 02:40:02;;;;;;;7.75;4.55;;;;;;;;;;1661261;86;21060;-71
2022/05/07 02:42:33;;;;;;;11.55;4.17;;;;;;;;;;1629095;88;21014;-71
2022/05/07 02:45:01;;;;;;;6.83;3.52;;;;;;;;;;1629020;88;21042;-71
2022/05/07 02:47:28;;;;;;;10.53;4.20;;;;;;;;;;1610385;88;21114;-71
2022/05/07 02:49:55;;;;;;;7.87;4.35;;;;;;;;;;1580191;91;21140;-71
2022/05/07 02:52:21;;;;;;;7.53;4.00;;;;;;;;;;1597098;90;21018;-71
2022/05/07 02:54:47;;;;;;;8.88;3.52;;;;;;;;;;1596091;90;21034;-71
2022/05/07 02:57:13;;;;;;;7.12;3.80;;;;;;;;;;1596135;90;21082;-71
2022/05/07 02:59:42;;;;;;;7.08;3.72;;;;;;;;;;1596916;90;21061;-71
2022/05/07 03:02:09;;;;;;;6.40;3.42;;;;;;;;;;1634410;88;21105;-71
2022/05/07 03:04:36;;;;;;;6.53;3.60;;;;;;;;;;1634230;86;21210;-71
2022/05/07 03:07:02;;;;;;;7.97;3.80;;;;;;;;;;1634239;88;21640;-71
2022/05/07 03:09:29;;;;;;;6.72;3.90;;;;;;;;;;1634084;88;21103;-71
2022/05/07 03:11:55;;;;;;;8.55;4.05;;;;;;;;;;1635739;88;21526;-71
2022/05/07 03:14:24;;;;;;;7.80;3.90;;;;;;;;;;1635570;88;21079;-71
2022/05/07 03:16:51;;;;;;;8.03;4.03;;;;;;;;;;1635684;88;21051;-71
2022/05/07 03:19:16;;;;;;;8.23;4.47;;;;;;;;;;1635625;88;21066;-71
2022/05/07 03:21:43;;;;;;;6.45;3.98;;;;;;;;;;1635709;88;21542;-71
2022/05/07 03:24:10;;;;;;;6.20;3.60;;;;;;;;;;1636017;88;21023;-71
2022/05/07 03:26:38;;;;;;;7.95;3.90;;;;;;;;;;1636099;88;21599;-71
2022/05/07 03:29:05;;;;;;;7.37;3.52;;;;;;;;;;1635061;88;21079;-71
2022/05/07 03:31:33;;;;;;;8.98;4.67;;;;;;;;;;1634492;88;21560;-71
2022/05/07 03:33:59;;;;;;;6.47;3.80;;;;;;;;;;1613799;88;21137;-71
2022/05/07 03:36:28;;;;;;;7.33;3.98;;;;;;;;;;1634671;88;21042;-71
2022/05/07 03:38:54;;;;;;;5.05;3.30;;;;;;;;;;1634539;88;21065;-70
2022/05/07 03:41:22;;;;;;;8.45;4.28;;;;;;;;;;1635692;88;21100;-70
2022/05/07 03:43:49;;;;;;;7.75;3.80;;;;;;;;;;1635805;88;21216;-71
2022/05/07 03:46:15;;;;;;;6.87;3.87;;;;;;;;;;1636071;88;21051;-71
2022/05/07 03:48:49;;;;;;;;;;;;;;;;;;1637823;88;21559;-71
2022/05/07 03:51:15;;;;;;;6.83;3.98;;;;;;;;;;1635462;88;20112;-70
2022/05/07 03:53:41;;;;;;;6.00;3.83;;;;;;;;;;1635954;88;21017;-70
2022/05/07 03:56:09;;;;;;;8.58;3.87;;;;;;;;;;1632999;88;21047;-71
2022/05/07 03:58:37;;;;;;;6.97;3.98;;;;;;;;;;1635873;88;21508;-71
2022/05/07 04:01:03;;;;;;;9.90;3.87;;;;;;;;;;1635023;88;21006;-71
2022/05/07 04:03:29;;;;;;;6.78;4.22;;;;;;;;;;1634620;86;21057;-71
2022/05/07 04:05:56;;;;;;;5.95;4.10;;;;;;;;;;1629680;88;21097;-71
2022/05/07 04:08:23;;;;;;;8.13;4.10;;;;;;;;;;1629540;88;21535;-71
2022/05/07 04:10:50;;;;;;;7.03;3.67;;;;;;;;;;1630147;88;21088;-71
2022/05/07 04:13:19;;;;;;;5.22;3.33;;;;;;;;;;1630963;88;21054;-70
2022/05/07 04:15:47;;;;;;;6.20;4.00;;;;;;;;;;1630516;88;21023;-70
2022/05/07 04:18:14;;;;;;;6.78;4.20;;;;;;;;;;1630500;88;21540;-71
2022/05/07 04:20:43;;;;;;;5.58;4.20;;;;;;;;;;1629281;88;21109;-71
2022/05/07 04:23:12;;;;;;;9.03;4.20;;;;;;;;;;1629419;88;21027;-70
2022/05/07 04:25:41;;;;;;;5.87;3.85;;;;;;;;;;1629400;88;21054;-70
2022/05/07 04:28:08;;;;;;;6.70;3.87;;;;;;;;;;1629458;88;21081;-70
2022/05/07 04:30:35;;;;;;;6.25;3.87;;;;;;;;;;1629158;88;21533;-70
2022/05/07 04:33:02;;;;;;;8.20;4.15;;;;;;;;;;1630101;88;21085;-70
2022/05/07 04:35:29;;;;;;;50.95;7.30;;;;;;;;;;1629176;88;21125;-70
2022/05/07 04:37:57;;;;;;;5.97;4.15;;;;;;;;;;1629480;88;21025;-70
2022/05/07 04:40:24;;;;;;;7.15;4.20;;;;;;;;;;1629178;88;21058;-70
2022/05/07 04:42:52;;;;;;;7.33;4.72;;;;;;;;;;1630184;88;21100;-70
2022/05/07 04:45:19;;;;;;;7.53;4.22;;;;;;;;;;1630680;88;21010;-70
2022/05/07 04:47:48;;;;;;;25.52;5.45;;;;;;;;;;1630592;88;21080;-70
2022/05/07 04:50:21;;;;;;;6.80;3.77;;;;;;;;;;1630452;88;21097;-70
2022/05/07 04:52:49;;;;;;;6.78;4.05;;;;;;;;;;1630525;88;21512;-72
2022/05/07 04:55:15;;;;;;;5.72;3.95;;;;;;;;;;1630730;88;20998;-71
2022/05/07 04:57:42;;;;;;;6.90;4.08;;;;;;;;;;1630785;88;21053;-71
2022/05/07 05:00:09;;;;;;;7.08;4.00;;;;;;;;;;1630819;88;21604;-72
2022/05/07 05:02:51;;;;;;;6.33;4.12;;;;;;;;;;1604433;88;21026;-70
2022/05/07 05:05:20;;;;;;;10.28;4.20;;;;;;;;;;1604788;89;21053;-70
2022/05/07 05:07:48;;;;;;;7.22;3.67;;;;;;;;;;1604729;89;21110;-70
2022/05/07 05:10:16;;;;;;;7.30;4.42;;;;;;;;;;1605166;88;21057;-70
2022/05/07 05:12:45;;;;;;;7.37;4.20;;;;;;;;;;1629559;88;21116;-70
2022/05/07 05:15:11;;;;;;;7.47;4.37;;;;;;;;;;1630683;88;21093;-70
2022/05/07 05:17:46;;;;;;;16.55;4.83;;;;;;;;;;1630165;88;21089;-71
2022/05/07 05:20:15;;;;;;;6.58;4.25;;;;;;;;;;1630732;88;21076;-70
2022/05/07 05:22:47;;;;;;;8.00;3.98;;;;;;;;;;1598722;89;21051;-71
2022/05/07 05:25:15;;;;;;;8.13;3.98;;;;;;;;;;1598498;90;21072;-71
2022/05/07 05:27:42;;;;;;;10.50;4.08;;;;;;;;;;1612711;88;21131;-71
2022/05/07 05:30:10;;;;;;;6.60;3.52;;;;;;;;;;1625540;88;21074;-71
2022/05/07 05:32:39;;;;;;;8.80;4.40;;;;;;;;;;1603147;88;20990;-72
2022/05/07 05:35:08;;;;;;;5.58;3.92;;;;;;;;;;1629707;88;21110;-71
2022/05/07 05:37:36;;;;;;;7.70;4.62;;;;;;;;;;1628633;88;21122;-72
2022/05/07 05:40:03;;;;;;;6.28;4.30;;;;;;;;;;1629417;88;21548;-72
2022/05/07 05:42:31;;;;;;;30.60;5.50;;;;;;;;;;1629097;88;21076;-71
2022/05/07 05:44:59;;;;;;;9.93;3.90;;;;;;;;;;1630151;88;21013;-71
2022/05/07 05:47:25;;;;;;;5.90;4.35;;;;;;;;;;1630595;88;21080;-71
2022/05/07 05:49:52;;;;;;;7.45;4.30;;;;;;;;;;1630926;88;21528;-71
2022/05/07 05:52:20;;;;;;;7.50;4.12;;;;;;;;;;1629591;88;21540;-71
2022/05/07 05:54:46;;;;;;;6.72;4.50;;;;;;;;;;1629595;88;21042;-71
2022/05/07 05:57:13;;;;;;;6.75;4.28;;;;;;;;;;1629466;88;21070;-71
2022/05/07 05:59:41;;;;;;;8.55;4.40;;;;;;;;;;1629501;88;21585;-72
2022/05/07 06:02:08;;;;;;;6.78;4.30;;;;;;;;;;1635629;86;20991;-71
2022/05/07 06:04:36;;;;;;;9.83;4.75;;;;;;;;;;1624292;86;21097;-71
2022/05/07 06:07:07;;;;;;;8.00;4.55;;;;;;;;;;1623470;88;21133;-70
2022/05/07 06:09:34;;;;;;;6.12;4.53;;;;;;;;;;1627424;88;21017;-70
2022/05/07 06:12:00;;;;;;;6.17;4.35;;;;;;;;;;1629115;88;21600;-70
2022/05/07 06:14:28;;;;;;;6.08;4.22;;;;;;;;;;1628969;88;21049;-70
2022/05/07 06:16:58;;;;;;;8.68;4.53;;;;;;;;;;1628969;88;21041;-70
2022/05/07 06:19:26;;;;;;;8.73;4.67;;;;;;;;;;1628879;88;21053;-70
2022/05/07 06:21:52;;;;;;;7.90;4.50;;;;;;;;;;1628941;88;21037;-70
2022/05/07 06:29:50;;;;;;;9.83;4.97;;;;;;;;;;1627454;88;21082;-70
2022/05/07 06:32:18;;;;;;;7.42;4.50;;;;;;;;;;1637672;87;21066;-70
2022/05/07 06:34:44;;;;;;;8.85;4.60;;;;;;;;;;1629915;87;21620;-70
2022/05/07 06:37:12;;;;;;;7.08;4.53;;;;;;;;;;1610275;88;20989;-70
2022/05/07 06:39:40;;;;;;;7.83;4.75;;;;;;;;;;1626683;88;21141;-70
2022/05/07 06:42:08;;;;;;;8.30;4.55;;;;;;;;;;1623536;88;21090;-71
2022/05/07 06:44:37;;;;;;;30.48;6.30;;;;;;;;;;1622656;88;21073;-71
2022/05/07 06:47:05;;;;;;;5.92;4.50;;;;;;;;;;1623953;88;21026;-71
2022/05/07 06:49:32;;;;;;;10.03;4.58;;;;;;;;;;1623441;88;21062;-71
2022/05/07 06:51:58;;;;;;;27.55;6.92;;;;;;;;;;1633315;86;21052;-81
2022/05/07 06:54:25;;;;;;;12.20;5.30;;;;;;;;;;1621878;88;20993;-80
2022/05/07 06:56:52;;;;;;;8.35;5.28;;;;;;;;;;1626220;88;21484;-83
2022/05/07 06:59:18;;;;;;;9.00;4.87;;;;;;;;;;1628433;88;21097;-81
2022/05/07 07:01:45;;;;;;;12.50;5.58;;;;;;;;;;1627711;88;21074;-82
2022/05/07 07:04:11;;;;;;;6.25;4.55;;;;;;;;;;1628520;87;21105;-84
2022/05/07 07:06:37;;;;;;;10.53;5.35;;;;;;;;;;1629308;86;21066;-79
2022/05/07 07:09:03;;;;;;;9.20;5.03;;;;;;;;;;1630611;88;21117;-83
2022/05/07 07:11:29;;;;;;;8.68;5.17;;;;;;;;;;1633418;87;21006;-82
2022/05/07 07:13:56;;;;;;;8.08;5.40;;;;;;;;;;1636587;87;21531;-81
2022/05/07 07:16:40;;;;;;;10.72;5.67;;;;;;;;;;1630297;87;21160;-82
2022/05/07 07:19:07;;;;;;;18.20;6.37;;;;;;;;;;1608716;89;21085;-81
2022/05/07 07:21:33;;;;;;;16.00;5.97;;;;;;;;;;1602297;89;21107;-82
2022/05/07 07:23:59;;;;;;;11.50;4.85;;;;;;;;;;1570628;91;21032;-83
2022/05/07 07:26:25;;;;;;;9.35;5.67;;;;;;;;;;1617144;89;22083;-82
2022/05/07 07:28:52;;;;;;;5.80;4.72;;;;;;;;;;1617234;89;21032;-83
2022/05/07 07:31:18;;;;;;;10.60;5.03;;;;;;;;;;1569869;91;21050;-83
2022/05/07 07:33:45;;;;;;;8.50;5.03;;;;;;;;;;1574362;91;21134;-80
2022/05/07 07:36:12;;;;;;;9.30;5.25;;;;;;;;;;1632422;88;21105;-82
2022/05/07 07:38:38;;;;;;;11.40;5.60;;;;;;;;;;1631940;88;21358;-82
2022/05/07 07:41:04;;;;;;;11.73;4.95;;;;;;;;;;1632047;88;21030;-81
2022/05/07 07:43:30;;;;;;;9.38;5.60;;;;;;;;;;1632207;88;21625;-82
2022/05/07 07:48:42;;;;;;;8.55;6.00;;;;;;;;;;1559025;90;21125;-82
2022/05/07 07:51:08;;;;;;;9.30;5.67;;;;;;;;;;1574450;91;21073;-82
2022/05/07 07:53:37;;;;;;;7.05;5.12;;;;;;;;;;1632992;88;21564;-82
2022/05/07 07:56:03;;;;;;;7.70;5.30;;;;;;;;;;1633275;88;21069;-82
2022/05/07 07:58:29;;;;;;;8.13;5.30;;;;;;;;;;1633331;88;21069;-80
2022/05/07 08:00:56;;;;;;;9.63;5.70;;;;;;;;;;1633462;88;21057;-82
2022/05/07 08:03:22;;;;;;;8.40;5.10;;;;;;;;;;1633539;87;21033;-82
2022/05/07 08:05:49;;;;;;;7.75;4.70;;;;;;;;;;1643760;86;21053;-81
2022/05/07 08:13:45;;;;;;;8.65;5.37;;;;;;;;;;1661122;86;21049;-82
2022/05/07 08:16:11;;;;;;;8.40;5.30;;;;;;;;;;1660900;86;21069;-83
2022/05/07 08:18:37;;;;;;;10.98;5.12;;;;;;;;;;1660903;86;21029;-82
2022/05/07 08:21:05;;;;;;;6.45;4.92;;;;;;;;;;1660780;86;21030;-82
2022/05/07 08:23:32;;;;;;;9.10;5.10;;;;;;;;;;1646222;86;21073;-83
2022/05/07 08:25:58;;;;;;;7.08;4.92;;;;;;;;;;1632263;88;21605;-79
2022/05/07 08:28:26;;;;;;;8.10;4.67;;;;;;;;;;1632328;88;21469;-83
2022/05/07 08:30:53;;;;;;;13.28;5.37;;;;;;;;;;1633172;87;21531;-84
2022/05/07 08:33:19;;;;;;;5.95;4.62;;;;;;;;;;1631626;87;21075;-83
2022/05/07 08:35:45;;;;;;;7.03;4.22;;;;;;;;;;1633481;87;21247;-79
2022/05/07 08:38:11;;;;;;;7.15;4.65;;;;;;;;;;1570299;91;21561;-83
2022/05/07 08:40:40;;;;;;;16.23;5.35;;;;;;;;;;1574969;90;21133;-80
2022/05/07 08:43:06;;;;;;;17.10;5.12;;;;;;;;;;1631770;88;21170;-79
2022/05/07 08:45:33;;;;;;;14.47;4.70;;;;;;;;;;1632779;87;21106;-80
2022/05/07 08:47:59;;;;;;;6.10;4.10;;;;;;;;;;1631239;88;21037;-78
2022/05/07 08:50:30;;;;;;;8.00;4.58;;;;;;;;;;1632097;88;21042;-78
2022/05/07 08:52:55;;;;;;;7.75;4.22;;;;;;;;;;1631545;88;21105;-77
2022/05/07 08:55:21;;;;;;;6.62;4.30;;;;;;;;;;1643953;86;21101;-76
2022/05/07 08:57:48;;;;;;;10.65;5.17;;;;;;;;;;1617215;88;22392;-75
2022/05/07 09:00:15;;;;;;;10.65;4.92;;;;;;;;;;1573328;91;21118;-74
2022/05/07 09:02:42;;;;;;;7.95;4.30;;;;;;;;;;1612191;88;21094;-76
2022/05/07 09:05:10;;;;;;;14.85;4.83;;;;;;;;;;1645634;87;21105;-75
2022/05/07 09:07:39;;;;;;;8.98;5.10;;;;;;;;;;1628235;88;21065;-75
2022/05/07 09:10:07;;;;;;;8.38;4.78;;;;;;;;;;1630324;88;21087;-74
2022/05/07 09:12:34;;;;;;;6.70;4.25;;;;;;;;;;1619178;87;21649;-76
2022/05/07 09:15:00;;;;;;;7.47;4.85;;;;;;;;;;1630301;88;21059;-77
2022/05/07 09:17:26;;;;;;;14.25;4.28;;;;;;;;;;1629988;88;21066;-73
2022/05/07 09:19:52;;;;;;;12.53;4.70;;;;;;;;;;1625670;88;21549;-73
2022/05/07 09:22:19;;;;;;;8.50;4.72;;;;;;;;;;1627892;87;21046;-75
2022/05/07 09:25:00;;;;;;;12.90;4.33;;;;;;;;;;1651229;87;21088;-73
2022/05/07 09:27:23;;;;;;;7.58;4.10;;;;;;;;;;1628416;88;21114;-73
2022/05/07 09:30:02;;;;;;;8.18;4.42;;;;;;;;;;1629774;88;21110;-73
2022/05/07 09:32:30;;;;;;;6.60;3.70;;;;;;;;;;1643572;86;21088;-72
2022/05/07 09:37:41;;;;;;;9.18;4.08;;;;;;;;;;1633731;87;21050;-73
2022/05/07 09:40:08;;;;;;;7.15;4.25;;;;;;;;;;1640087;87;21080;-74
2022/05/07 09:45:28;;;;;;;6.15;4.62;;;;;;;;;;1790143;79;22897;-73
2022/05/07 09:47:55;;;;;;;28.00;5.72;;;;;;;;;;1762082;81;21053;-73
2022/05/07 09:50:43;;;;;;;10.45;4.45;;;;;;;;;;1762035;81;21013;-73
2022/05/07 09:58:23;;;;;;;6.45;3.87;;;;;;;;;;1741870;82;21551;-73
2022/05/07 10:00:53;;;;;;;9.65;4.58;;;;;;;;;;1752992;81;21076;-73
2022/05/07 10:03:21;;;;;;;10.38;5.42;;;;;;;;;;1756116;81;21096;-73
2022/05/07 10:05:55;;;;;;;11.55;4.92;;;;;;;;;;1740658;82;21068;-73
2022/05/07 10:08:31;;;;;;;7.17;3.95;;;;;;;;;;1746140;82;20984;-73
2022/05/07 10:10:58;;;;;;;9.83;4.22;;;;;;;;;;1723713;82;21001;-73
2022/05/07 10:13:26;;;;;;;6.40;4.50;;;;;;;;;;1723480;83;21033;-72
2022/05/07 10:16:00;;;;;;;6.05;4.15;;;;;;;;;;1723610;83;21060;-72
2022/05/07 10:18:26;;;;;;;;;;;;;;;;;;1726397;83;20989;-72
2022/05/07 10:20:52;;;;;;;6.67;4.10;;;;;;;;;;1731117;82;20158;-72
2022/05/07 10:23:28;;;;;;;30.97;6.83;;;;;;;;;;1688290;85;21642;-72
2022/05/07 10:25:55;;;;;;;8.13;4.37;;;;;;;;;;1681838;85;21093;-72
2022/05/07 10:28:22;;;;;;;6.08;3.92;;;;;;;;;;1699994;84;21009;-72
2022/05/07 10:30:52;;;;;;;10.35;4.47;;;;;;;;;;1697026;84;21115;-72
2022/05/07 10:33:18;;;;;;;7.17;4.10;;;;;;;;;;1695947;84;21040;-72
2022/05/07 10:35:52;;;;;;;7.72;4.37;;;;;;;;;;1699646;84;21113;-73
2022/05/07 10:38:26;;;;;;;6.50;3.87;;;;;;;;;;1689998;84;21063;-71
2022/05/07 10:40:57;;;;;;;9.18;4.22;;;;;;;;;;1689468;84;21084;-72
2022/05/07 10:43:42;;;;;;;7.40;4.30;;;;;;;;;;1704578;83;21099;-71
2022/05/07 10:46:09;;;;;;;9.55;5.08;;;;;;;;;;1721007;83;21062;-72
2022/05/07 10:48:44;;;;;;;6.60;4.80;;;;;;;;;;1720373;83;21645;-73
2022/05/07 10:51:18;;;;;;;7.40;4.47;;;;;;;;;;1702955;83;21602;-73
2022/05/07 10:53:45;;;;;;;7.53;4.40;;;;;;;;;;1692348;85;21571;-72
2022/05/07 10:56:16;;;;;;;10.53;4.78;;;;;;;;;;1702722;83;21094;-73
2022/05/07 10:58:53;;;;;;;6.37;4.40;;;;;;;;;;1694389;83;21071;-73
2022/05/07 11:01:20;;;;;;;7.03;4.03;;;;;;;;;;1688836;84;21095;-73
2022/05/07 11:03:47;;;;;;;7.20;4.50;;;;;;;;;;1669272;83;21629;-73
2022/05/07 11:06:13;;;;;;;7.80;4.80;;;;;;;;;;1708314;83;21079;-73
2022/05/07 11:08:47;;;;;;;8.73;5.35;;;;;;;;;;1713053;83;21071;-75
2022/05/07 11:11:18;;;;;;;6.47;4.15;;;;;;;;;;1705787;83;21019;-73
2022/05/07 11:13:47;;;;;;;7.87;5.25;;;;;;;;;;1707312;83;21099;-74
2022/05/07 11:16:13;;;;;;;8.40;5.00;;;;;;;;;;1712650;83;21021;-75
2022/05/07 11:18:45;;;;;;;20.90;5.87;;;;;;;;;;1697708;83;21507;-77
2022/05/07 11:21:10;;;;;;;14.87;4.70;;;;;;;;;;1663062;86;21070;-82
2022/05/07 11:23:37;;;;;;;13.65;4.70;;;;;;;;;;1666092;85;21462;-77
2022/05/07 11:26:11;;;;;;;8.85;4.60;;;;;;;;;;1677017;84;21078;-76
2022/05/07 11:28:39;;;;;;;6.47;4.12;;;;;;;;;;1691820;84;20949;-77
2022/05/07 11:31:05;;;;;;;7.05;4.40;;;;;;;;;;1722424;83;21064;-82
2022/05/07 11:33:32;;;;;;;6.30;4.35;;;;;;;;;;1705322;84;21519;-76
2022/05/07 11:36:03;;;;;;;6.87;3.60;;;;;;;;;;1688936;84;21024;-76
2022/05/07 11:38:30;;;;;;;9.47;4.13;;;;;;;;;;1701724;84;21154;-77
2022/05/07 11:40:56;;;;;;;6.47;4.20;;;;;;;;;;1725421;83;21178;-76
2022/05/07 11:46:07;;;;;;;8.03;4.30;;;;;;;;;;1645359;86;21104;-75
2022/05/07 11:48:33;;;;;;;7.50;4.20;;;;;;;;;;1701583;84;21060;-78
2022/05/07 11:50:59;;;;;;;8.35;4.58;;;;;;;;;;1701727;84;21029;-78
2022/05/07 11:53:29;;;;;;;16.15;5.03;;;;;;;;;;1685304;84;21501;-73
2022/05/07 11:56:06;;;;;;;8.23;4.37;;;;;;;;;;1673310;86;21109;-72
2022/05/07 11:58:40;;;;;;;9.03;4.95;;;;;;;;;;1694741;84;21063;-76
2022/05/07 12:01:10;;;;;;;6.78;4.45;;;;;;;;;;1700914;84;21658;-76
2022/05/07 12:03:36;;;;;;;14.53;5.17;;;;;;;;;;1700366;84;21096;-76
2022/05/07 12:06:03;;;;;;;8.08;4.42;;;;;;;;;;1701310;84;21036;-76
2022/05/07 12:08:31;;;;;;;6.30;4.83;;;;;;;;;;1689582;84;21080;-73
2022/05/07 12:10:58;;;;;;;6.35;4.20;;;;;;;;;;1685271;84;21028;-73
2022/05/07 12:13:25;;;;;;;6.42;4.12;;;;;;;;;;1684319;84;21073;-76
2022/05/07 12:18:41;;;;;;;7.35;5.22;;;;;;;;;;1679820;84;21049;-78
2022/05/07 12:21:09;;;;;;;5.12;4.10;;;;;;;;;;1673533;86;21123;-74
2022/05/07 12:31:52;;;;;;;6.03;4.25;;;;;;;;;;1677787;84;21065;-81
2022/05/07 12:34:18;;;;;;;6.70;4.47;;;;;;;;;;1674480;84;21073;-75
2022/05/07 12:36:44;;;;;;;8.30;4.62;;;;;;;;;;1700802;84;21528;-81
2022/05/07 12:39:10;;;;;;;9.45;4.17;;;;;;;;;;1703393;84;21025;-82
2022/05/07 12:41:41;;;;;;;13.00;4.70;;;;;;;;;;1703002;84;21025;-81
2022/05/07 12:44:07;;;;;;;7.78;4.70;;;;;;;;;;1687941;82;21068;-82
2022/05/07 12:46:35;;;;;;;7.45;5.20;;;;;;;;;;1748999;82;21017;-81
2022/05/07 12:49:02;;;;;;;7.75;4.42;;;;;;;;;;1740339;82;21036;-81
2022/05/07 12:51:29;;;;;;;8.30;4.50;;;;;;;;;;1724163;83;21040;-83
2022/05/07 12:53:55;;;;;;;6.45;3.90;;;;;;;;;;1733128;82;21028;-82
2022/05/07 12:56:27;;;;;;;8.13;4.37;;;;;;;;;;1753820;81;21037;-81
2022/05/07 12:58:51;;;;;;;6.62;4.08;;;;;;;;;;1751415;82;21100;-81
2022/05/07 13:01:17;;;;;;;7.90;4.62;;;;;;;;;;1753597;81;21076;-82
2022/05/07 13:03:44;;;;;;;6.42;4.05;;;;;;;;;;1753740;81;21124;-82
2022/05/07 13:06:10;;;;;;;7.67;4.17;;;;;;;;;;1753621;82;21774;-82
2022/05/07 13:08:36;;;;;;;8.08;4.20;;;;;;;;;;1733004;82;21056;-82
2022/05/07 13:11:04;;;;;;;7.95;4.50;;;;;;;;;;1723715;83;21032;-82
2022/05/07 13:13:30;;;;;;;11.97;4.50;;;;;;;;;;1723536;83;21069;-82
2022/05/07 13:15:56;;;;;;;7.80;4.35;;;;;;;;;;1723743;83;21096;-82
2022/05/07 13:18:23;;;;;;;8.85;4.62;;;;;;;;;;1745013;82;21079;-82
2022/05/07 13:20:49;;;;;;;8.05;4.75;;;;;;;;;;1724364;82;21060;-82
2022/05/07 13:23:16;;;;;;;7.67;4.65;;;;;;;;;;1739496;82;21021;-81
2022/05/07 13:25:42;;;;;;;11.10;4.85;;;;;;;;;;1723298;83;21013;-82
2022/05/07 13:28:09;;;;;;;7.87;5.10;;;;;;;;;;1722925;83;21068;-80
2022/05/07 13:30:35;;;;;;;6.53;4.70;;;;;;;;;;1723576;83;21547;-81
2022/05/07 13:33:02;;;;;;;9.03;5.17;;;;;;;;;;1723645;83;21076;-82
2022/05/07 13:35:28;;;;;;;8.68;4.72;;;;;;;;;;1723511;83;21627;-82
2022/05/07 13:37:55;;;;;;;6.97;4.42;;;;;;;;;;1723834;83;21071;-81
2022/05/07 13:40:21;;;;;;;9.93;4.90;;;;;;;;;;1723858;83;21060;-82
2022/05/07 13:42:47;;;;;;;5.95;4.20;;;;;;;;;;1723934;83;21053;-81
2022/05/07 13:45:13;;;;;;;7.42;4.20;;;;;;;;;;1717972;81;21113;-82
2022/05/07 13:47:41;;;;;;;9.13;4.85;;;;;;;;;;1710001;84;21588;-82
2022/05/07 13:50:08;;;;;;;8.08;4.70;;;;;;;;;;1710284;84;21036;-81
2022/05/07 13:52:35;;;;;;;9.00;4.62;;;;;;;;;;1710295;84;21037;-81
2022/05/07 13:55:02;;;;;;;9.35;4.70;;;;;;;;;;1710269;83;21045;-81
2022/05/07 13:57:28;;;;;;;7.40;4.60;;;;;;;;;;1710251;84;21037;-81
2022/05/07 13:59:54;;;;;;;8.58;4.80;;;;;;;;;;1710180;84;21064;-81
2022/05/07 14:02:21;;;;;;;6.80;4.55;;;;;;;;;;1710467;84;21081;-82
2022/05/07 14:04:47;;;;;;;8.48;4.55;;;;;;;;;;1710180;84;21636;-82
2022/05/07 14:07:14;;;;;;;8.28;4.92;;;;;;;;;;1710334;84;21072;-81
2022/05/07 14:09:47;;;;;;;8.18;4.75;;;;;;;;;;1710124;84;21072;-81
2022/05/07 14:12:10;;;;;;;7.30;4.58;;;;;;;;;;1709617;84;21049;-82
2022/05/07 14:14:37;;;;;;;9.08;4.80;;;;;;;;;;1710537;84;21080;-80
2022/05/07 14:17:04;;;;;;;9.33;4.37;;;;;;;;;;1710626;83;21077;-82
2022/05/07 14:19:30;;;;;;;9.25;4.80;;;;;;;;;;1710471;83;21038;-81
2022/05/07 14:21:56;;;;;;;6.65;5.15;;;;;;;;;;1710261;84;21111;-81
2022/05/07 14:24:22;;;;;;;5.55;4.12;;;;;;;;;;1710339;84;21061;-80
2022/05/07 14:26:48;;;;;;;8.05;4.75;;;;;;;;;;1710771;84;21104;-82
2022/05/07 14:29:16;;;;;;;8.05;4.33;;;;;;;;;;1710665;84;21033;-81
2022/05/07 14:31:42;;;;;;;10.15;4.72;;;;;;;;;;1710878;83;21539;-81
2022/05/07 14:34:08;;;;;;;7.15;4.30;;;;;;;;;;1710222;84;21552;-79
2022/05/07 14:36:36;;;;;;;6.47;3.92;;;;;;;;;;1710295;83;21064;-81
2022/05/07 14:39:02;;;;;;;6.55;3.65;;;;;;;;;;1710519;84;21005;-79
2022/05/07 14:41:28;;;;;;;11.80;4.85;;;;;;;;;;1710154;84;21516;-79
2022/05/07 14:43:54;;;;;;;18.62;4.70;;;;;;;;;;1714692;82;21044;-79
2022/05/07 14:46:21;;;;;;;9.23;4.55;;;;;;;;;;1722293;81;21021;-76
2022/05/07 14:48:49;;;;;;;7.05;4.60;;;;;;;;;;1736124;81;21566;-75
2022/05/07 14:51:17;;;;;;;6.65;4.10;;;;;;;;;;1685004;83;21092;-75
2022/05/07 14:53:44;;;;;;;5.65;4.17;;;;;;;;;;1680641;85;21004;-76
2022/05/07 14:56:10;;;;;;;10.72;4.33;;;;;;;;;;1685078;85;21091;-73
2022/05/07 14:58:36;;;;;;;10.45;4.30;;;;;;;;;;1685077;85;21084;-73
2022/05/07 15:01:02;;;;;;;7.62;5.40;;;;;;;;;;1683247;85;21051;-75
2022/05/07 15:03:31;;;;;;;7.03;4.53;;;;;;;;;;1724139;82;21087;-74
2022/05/07 15:05:57;;;;;;;8.75;4.80;;;;;;;;;;1723769;83;21064;-75
2022/05/07 15:11:11;;;;;;;8.50;4.03;;;;;;;;;;1725562;82;21492;-74
2022/05/07 15:13:39;;;;;;;7.45;4.17;;;;;;;;;;1733080;82;21060;-74
2022/05/07 15:16:05;;;;;;;6.90;4.40;;;;;;;;;;1726507;82;21014;-75
2022/05/07 15:18:31;;;;;;;6.15;3.62;;;;;;;;;;1745474;81;21083;-75
2022/05/07 15:20:58;;;;;;;9.13;5.03;;;;;;;;;;1723123;83;21111;-75
2022/05/07 15:23:24;;;;;;;13.43;4.78;;;;;;;;;;1723749;83;21547;-74
2022/05/07 15:25:51;;;;;;;7.53;4.37;;;;;;;;;;1723583;83;21068;-75
2022/05/07 15:28:19;;;;;;;7.67;4.55;;;;;;;;;;1745236;81;20998;-75
2022/05/07 15:30:50;;;;;;;10.00;4.10;;;;;;;;;;1723539;83;21029;-75
2022/05/07 15:38:49;;;;;;;8.08;5.40;;;;;;;;;;1723537;83;21140;-75